sensor_id;sensor_type;location;lat;lon;timestamp;temperature;humidity
66928;DHT22;59882;45.624;11.698;2023-02-28T00:00:15;5.40;52.10
66928;DHT22;59882;45.624;11.698;2023-02-28T00:02:42;5.40;52.00
66928;DHT22;59882;45.624;11.698;2023-02-28T00:05:12;5.50;51.70
66928;DHT22;59882;45.624;11.698;2023-02-28T00:07:38;5.50;51.60
66928;DHT22;59882;45.624;11.698;2023-02-28T00:10:08;5.50;51.30
66928;DHT22;59882;45.624;11.698;2023-02-28T00:12:35;5.50;51.00
66928;DHT22;59882;45.624;11.698;2023-02-28T00:15:02;5.50;51.00
66928;DHT22;59882;45.624;11.698;2023-02-28T00:17:27;5.50;51.00
66928;DHT22;59882;45.624;11.698;2023-02-28T00:19:53;5.50;51.00
66928;DHT22;59882;45.624;11.698;2023-02-28T00:22:20;5.50;51.10
66928;DHT22;59882;45.624;11.698;2023-02-28T00:24:46;5.50;50.80
66928;DHT22;59882;45.624;11.698;2023-02-28T00:27:13;5.60;50.90
66928;DHT22;59882;45.624;11.698;2023-02-28T00:29:39;5.60;51.00
66928;DHT22;59882;45.624;11.698;2023-02-28T00:32:05;5.50;51.10
66928;DHT22;59882;45.624;11.698;2023-02-28T00:34:31;5.60;51.10
66928;DHT22;59882;45.624;11.698;2023-02-28T00:37:07;5.60;51.30
66928;DHT22;59882;45.624;11.698;2023-02-28T00:39:34;5.50;51.40
66928;DHT22;59882;45.624;11.698;2023-02-28T00:42:00;5.50;51.30
66928;DHT22;59882;45.624;11.698;2023-02-28T00:44:26;5.50;51.50
66928;DHT22;59882;45.624;11.698;2023-02-28T00:46:52;5.50;51.30
66928;DHT22;59882;45.624;11.698;2023-02-28T00:49:19;5.50;51.30
66928;DHT22;59882;45.624;11.698;2023-02-28T00:51:45;5.50;51.30
66928;DHT22;59882;45.624;11.698;2023-02-28T00:54:11;5.50;51.00
66928;DHT22;59882;45.624;11.698;2023-02-28T00:56:37;5.50;51.10
66928;DHT22;59882;45.624;11.698;2023-02-28T00:59:02;5.60;51.10
66928;DHT22;59882;45.624;11.698;2023-02-28T01:01:28;5.50;51.00
66928;DHT22;59882;45.624;11.698;2023-02-28T01:03:54;5.50;50.90
66928;DHT22;59882;45.624;11.698;2023-02-28T01:06:19;5.50;50.80
66928;DHT22;59882;45.624;11.698;2023-02-28T01:08:45;5.50;50.90
66928;DHT22;59882;45.624;11.698;2023-02-28T01:11:12;5.40;50.90
66928;DHT22;59882;45.624;11.698;2023-02-28T01:13:38;5.40;51.10
66928;DHT22;59882;45.624;11.698;2023-02-28T01:16:04;5.40;51.40
66928;DHT22;59882;45.624;11.698;2023-02-28T01:18:30;5.40;51.30
66928;DHT22;59882;45.624;11.698;2023-02-28T01:20:56;5.40;51.60
66928;DHT22;59882;45.624;11.698;2023-02-28T01:23:23;5.40;51.40
66928;DHT22;59882;45.624;11.698;2023-02-28T01:25:49;5.40;51.40
66928;DHT22;59882;45.624;11.698;2023-02-28T01:28:15;5.40;51.60
66928;DHT22;59882;45.624;11.698;2023-02-28T01:30:41;5.40;51.80
66928;DHT22;59882;45.624;11.698;2023-02-28T01:33:06;5.30;51.80
66928;DHT22;59882;45.624;11.698;2023-02-28T01:35:33;5.30;51.60
66928;DHT22;59882;45.624;11.698;2023-02-28T01:37:59;5.30;51.70
66928;DHT22;59882;45.624;11.698;2023-02-28T01:40:25;5.30;51.80
66928;DHT22;59882;45.624;11.698;2023-02-28T01:42:50;5.30;51.60
66928;DHT22;59882;45.624;11.698;2023-02-28T01:47:55;5.30;51.60
66928;DHT22;59882;45.624;11.698;2023-02-28T01:50:26;5.30;51.70
66928;DHT22;59882;45.624;11.698;2023-02-28T01:52:54;5.30;52.00
66928;DHT22;59882;45.624;11.698;2023-02-28T01:55:22;5.30;51.90
66928;DHT22;59882;45.624;11.698;2023-02-28T01:57:52;5.30;51.80
66928;DHT22;59882;45.624;11.698;2023-02-28T02:00:23;5.30;51.80
66928;DHT22;59882;45.624;11.698;2023-02-28T02:02:51;5.30;51.80
66928;DHT22;59882;45.624;11.698;2023-02-28T02:05:30;5.30;52.00
66928;DHT22;59882;45.624;11.698;2023-02-28T02:08:05;5.30;52.10
66928;DHT22;59882;45.624;11.698;2023-02-28T02:10:39;5.20;52.20
66928;DHT22;59882;45.624;11.698;2023-02-28T02:13:09;5.20;52.20
66928;DHT22;59882;45.624;11.698;2023-02-28T02:15:49;5.20;52.40
66928;DHT22;59882;45.624;11.698;2023-02-28T02:37:51;5.10;52.10
66928;DHT22;59882;45.624;11.698;2023-02-28T02:40:20;5.10;52.00
66928;DHT22;59882;45.624;11.698;2023-02-28T02:42:55;5.20;51.90
66928;DHT22;59882;45.624;11.698;2023-02-28T02:45:32;5.20;51.90
66928;DHT22;59882;45.624;11.698;2023-02-28T02:48:02;5.20;51.80
66928;DHT22;59882;45.624;11.698;2023-02-28T02:50:41;5.20;51.80
66928;DHT22;59882;45.624;11.698;2023-02-28T02:53:09;5.20;51.90
66928;DHT22;59882;45.624;11.698;2023-02-28T02:55:38;5.20;52.00
66928;DHT22;59882;45.624;11.698;2023-02-28T02:58:10;5.20;51.80
66928;DHT22;59882;45.624;11.698;2023-02-28T03:00:42;5.20;51.90
66928;DHT22;59882;45.624;11.698;2023-02-28T03:03:09;5.20;51.70
66928;DHT22;59882;45.624;11.698;2023-02-28T03:05:43;5.20;51.60
66928;DHT22;59882;45.624;11.698;2023-02-28T03:08:10;5.10;51.80
66928;DHT22;59882;45.624;11.698;2023-02-28T03:10:41;5.10;51.70
66928;DHT22;59882;45.624;11.698;2023-02-28T03:27:06;5.10;51.80
66928;DHT22;59882;45.624;11.698;2023-02-28T03:29:40;5.10;51.50
66928;DHT22;59882;45.624;11.698;2023-02-28T03:32:16;5.10;51.90
66928;DHT22;59882;45.624;11.698;2023-02-28T03:35:00;5.10;51.60
66928;DHT22;59882;45.624;11.698;2023-02-28T03:37:31;5.10;51.70
66928;DHT22;59882;45.624;11.698;2023-02-28T03:40:37;5.10;51.80
66928;DHT22;59882;45.624;11.698;2023-02-28T03:43:01;5.10;51.70
66928;DHT22;59882;45.624;11.698;2023-02-28T03:45:30;5.20;51.90
66928;DHT22;59882;45.624;11.698;2023-02-28T03:48:13;5.10;51.70
66928;DHT22;59882;45.624;11.698;2023-02-28T03:50:44;5.10;51.80
66928;DHT22;59882;45.624;11.698;2023-02-28T03:56:11;5.10;51.80
66928;DHT22;59882;45.624;11.698;2023-02-28T03:58:49;5.10;52.00
66928;DHT22;59882;45.624;11.698;2023-02-28T04:01:30;5.10;51.60
66928;DHT22;59882;45.624;11.698;2023-02-28T04:03:57;5.10;52.10
66928;DHT22;59882;45.624;11.698;2023-02-28T04:06:23;5.20;52.10
66928;DHT22;59882;45.624;11.698;2023-02-28T04:08:50;5.20;52.00
66928;DHT22;59882;45.624;11.698;2023-02-28T04:11:38;5.20;51.90
66928;DHT22;59882;45.624;11.698;2023-02-28T04:14:04;5.30;51.90
66928;DHT22;59882;45.624;11.698;2023-02-28T04:16:32;5.30;52.00
66928;DHT22;59882;45.624;11.698;2023-02-28T04:18:58;5.30;52.20
66928;DHT22;59882;45.624;11.698;2023-02-28T04:21:48;5.30;52.10
66928;DHT22;59882;45.624;11.698;2023-02-28T04:24:27;5.30;52.40
66928;DHT22;59882;45.624;11.698;2023-02-28T04:26:55;5.30;52.00
66928;DHT22;59882;45.624;11.698;2023-02-28T04:29:31;5.30;52.00
66928;DHT22;59882;45.624;11.698;2023-02-28T04:31:58;5.30;51.90
66928;DHT22;59882;45.624;11.698;2023-02-28T04:34:29;5.30;51.80
66928;DHT22;59882;45.624;11.698;2023-02-28T04:36:55;5.30;51.90
66928;DHT22;59882;45.624;11.698;2023-02-28T04:39:22;5.30;52.00
66928;DHT22;59882;45.624;11.698;2023-02-28T04:41:48;5.40;52.00
66928;DHT22;59882;45.624;11.698;2023-02-28T04:44:15;5.30;52.00
66928;DHT22;59882;45.624;11.698;2023-02-28T04:46:41;5.30;52.30
66928;DHT22;59882;45.624;11.698;2023-02-28T04:49:09;5.30;51.90
66928;DHT22;59882;45.624;11.698;2023-02-28T04:51:36;5.30;52.00
66928;DHT22;59882;45.624;11.698;2023-02-28T04:54:01;5.30;52.00
66928;DHT22;59882;45.624;11.698;2023-02-28T04:56:27;5.30;52.10
66928;DHT22;59882;45.624;11.698;2023-02-28T04:58:53;5.30;52.10
66928;DHT22;59882;45.624;11.698;2023-02-28T05:01:25;5.30;52.20
66928;DHT22;59882;45.624;11.698;2023-02-28T05:03:52;5.30;52.20
66928;DHT22;59882;45.624;11.698;2023-02-28T05:06:18;5.20;52.30
66928;DHT22;59882;45.624;11.698;2023-02-28T05:08:45;5.20;52.30
66928;DHT22;59882;45.624;11.698;2023-02-28T05:11:31;5.20;52.30
66928;DHT22;59882;45.624;11.698;2023-02-28T05:14:01;5.10;52.40
66928;DHT22;59882;45.624;11.698;2023-02-28T05:16:27;5.20;52.30
66928;DHT22;59882;45.624;11.698;2023-02-28T05:18:53;5.20;52.30
66928;DHT22;59882;45.624;11.698;2023-02-28T05:21:40;5.10;52.40
66928;DHT22;59882;45.624;11.698;2023-02-28T05:24:11;5.10;52.50
66928;DHT22;59882;45.624;11.698;2023-02-28T05:26:39;5.10;52.80
66928;DHT22;59882;45.624;11.698;2023-02-28T05:29:05;5.10;52.70
66928;DHT22;59882;45.624;11.698;2023-02-28T05:31:31;5.00;52.90
66928;DHT22;59882;45.624;11.698;2023-02-28T05:33:57;5.10;52.90
66928;DHT22;59882;45.624;11.698;2023-02-28T05:36:22;5.10;52.90
66928;DHT22;59882;45.624;11.698;2023-02-28T05:38:49;5.10;53.00
66928;DHT22;59882;45.624;11.698;2023-02-28T05:41:15;5.10;53.20
66928;DHT22;59882;45.624;11.698;2023-02-28T05:43:41;5.10;53.20
66928;DHT22;59882;45.624;11.698;2023-02-28T05:46:09;5.10;53.40
66928;DHT22;59882;45.624;11.698;2023-02-28T05:48:36;5.10;53.40
66928;DHT22;59882;45.624;11.698;2023-02-28T05:51:03;5.10;53.40
66928;DHT22;59882;45.624;11.698;2023-02-28T05:53:29;5.10;53.80
66928;DHT22;59882;45.624;11.698;2023-02-28T05:55:55;5.10;53.60
66928;DHT22;59882;45.624;11.698;2023-02-28T05:58:21;5.00;53.50
66928;DHT22;59882;45.624;11.698;2023-02-28T06:00:47;5.00;53.80
66928;DHT22;59882;45.624;11.698;2023-02-28T06:03:12;5.00;53.90
66928;DHT22;59882;45.624;11.698;2023-02-28T06:05:38;5.00;53.60
66928;DHT22;59882;45.624;11.698;2023-02-28T06:08:04;5.00;53.60
66928;DHT22;59882;45.624;11.698;2023-02-28T06:10:33;5.00;54.00
66928;DHT22;59882;45.624;11.698;2023-02-28T06:13:02;4.90;54.00
66928;DHT22;59882;45.624;11.698;2023-02-28T06:15:28;4.90;54.00
66928;DHT22;59882;45.624;11.698;2023-02-28T06:17:55;5.00;53.80
66928;DHT22;59882;45.624;11.698;2023-02-28T06:20:22;4.90;53.60
66928;DHT22;59882;45.624;11.698;2023-02-28T06:22:48;5.00;53.50
66928;DHT22;59882;45.624;11.698;2023-02-28T06:25:15;5.00;53.60
66928;DHT22;59882;45.624;11.698;2023-02-28T06:27:41;5.00;53.40
66928;DHT22;59882;45.624;11.698;2023-02-28T06:30:07;5.00;53.40
66928;DHT22;59882;45.624;11.698;2023-02-28T06:32:33;5.00;53.50
66928;DHT22;59882;45.624;11.698;2023-02-28T06:34:59;5.10;53.40
66928;DHT22;59882;45.624;11.698;2023-02-28T06:37:25;5.10;53.40
66928;DHT22;59882;45.624;11.698;2023-02-28T06:39:51;5.10;53.40
66928;DHT22;59882;45.624;11.698;2023-02-28T06:42:17;5.10;53.50
66928;DHT22;59882;45.624;11.698;2023-02-28T06:45:01;5.20;54.00
66928;DHT22;59882;45.624;11.698;2023-02-28T06:47:30;5.20;54.10
66928;DHT22;59882;45.624;11.698;2023-02-28T06:49:55;5.20;53.80
66928;DHT22;59882;45.624;11.698;2023-02-28T06:52:21;5.20;53.70
66928;DHT22;59882;45.624;11.698;2023-02-28T06:54:47;5.30;54.20
66928;DHT22;59882;45.624;11.698;2023-02-28T06:57:31;5.30;54.10
66928;DHT22;59882;45.624;11.698;2023-02-28T07:00:00;5.30;54.00
66928;DHT22;59882;45.624;11.698;2023-02-28T07:02:26;5.40;54.10
66928;DHT22;59882;45.624;11.698;2023-02-28T07:04:52;5.40;53.80
66928;DHT22;59882;45.624;11.698;2023-02-28T07:07:18;5.40;54.20
66928;DHT22;59882;45.624;11.698;2023-02-28T07:09:44;5.50;55.50
66928;DHT22;59882;45.624;11.698;2023-02-28T07:12:09;5.50;56.00
66928;DHT22;59882;45.624;11.698;2023-02-28T07:14:36;5.50;55.60
66928;DHT22;59882;45.624;11.698;2023-02-28T07:17:02;5.60;56.20
66928;DHT22;59882;45.624;11.698;2023-02-28T07:19:27;5.70;55.30
66928;DHT22;59882;45.624;11.698;2023-02-28T07:21:53;5.80;56.50
66928;DHT22;59882;45.624;11.698;2023-02-28T07:24:19;5.80;54.30
66928;DHT22;59882;45.624;11.698;2023-02-28T07:26:44;5.90;54.00
66928;DHT22;59882;45.624;11.698;2023-02-28T07:29:10;5.90;53.70
66928;DHT22;59882;45.624;11.698;2023-02-28T07:31:36;6.00;53.30
66928;DHT22;59882;45.624;11.698;2023-02-28T07:34:02;6.00;52.80
66928;DHT22;59882;45.624;11.698;2023-02-28T07:36:28;6.00;52.90
66928;DHT22;59882;45.624;11.698;2023-02-28T07:38:54;6.10;53.10
66928;DHT22;59882;45.624;11.698;2023-02-28T07:41:21;6.10;52.80
66928;DHT22;59882;45.624;11.698;2023-02-28T07:43:48;6.10;52.00
66928;DHT22;59882;45.624;11.698;2023-02-28T07:46:15;6.10;52.10
66928;DHT22;59882;45.624;11.698;2023-02-28T07:48:42;6.20;52.30
66928;DHT22;59882;45.624;11.698;2023-02-28T07:51:08;6.20;52.40
66928;DHT22;59882;45.624;11.698;2023-02-28T07:53:34;6.30;52.40
66928;DHT22;59882;45.624;11.698;2023-02-28T07:56:01;6.30;51.40
66928;DHT22;59882;45.624;11.698;2023-02-28T07:58:28;6.30;52.30
66928;DHT22;59882;45.624;11.698;2023-02-28T08:00:54;6.40;51.80
66928;DHT22;59882;45.624;11.698;2023-02-28T08:03:21;6.40;51.70
66928;DHT22;59882;45.624;11.698;2023-02-28T08:05:48;6.50;50.80
66928;DHT22;59882;45.624;11.698;2023-02-28T08:08:14;6.40;50.50
66928;DHT22;59882;45.624;11.698;2023-02-28T08:10:40;6.40;50.80
66928;DHT22;59882;45.624;11.698;2023-02-28T08:13:07;6.40;51.00
66928;DHT22;59882;45.624;11.698;2023-02-28T08:15:32;6.40;50.50
66928;DHT22;59882;45.624;11.698;2023-02-28T08:17:58;6.40;50.90
66928;DHT22;59882;45.624;11.698;2023-02-28T08:20:25;6.40;50.40
66928;DHT22;59882;45.624;11.698;2023-02-28T08:22:51;6.40;50.70
66928;DHT22;59882;45.624;11.698;2023-02-28T08:25:17;6.40;50.40
66928;DHT22;59882;45.624;11.698;2023-02-28T08:27:43;6.50;50.10
66928;DHT22;59882;45.624;11.698;2023-02-28T08:30:13;6.50;50.70
66928;DHT22;59882;45.624;11.698;2023-02-28T08:32:39;6.50;50.80
66928;DHT22;59882;45.624;11.698;2023-02-28T08:35:06;6.50;50.30
66928;DHT22;59882;45.624;11.698;2023-02-28T08:37:32;6.50;50.20
66928;DHT22;59882;45.624;11.698;2023-02-28T08:39:57;6.60;50.20
66928;DHT22;59882;45.624;11.698;2023-02-28T08:42:23;6.60;50.30
66928;DHT22;59882;45.624;11.698;2023-02-28T08:44:49;6.60;50.30
66928;DHT22;59882;45.624;11.698;2023-02-28T08:47:15;6.70;50.30
66928;DHT22;59882;45.624;11.698;2023-02-28T08:49:41;6.70;49.20
66928;DHT22;59882;45.624;11.698;2023-02-28T08:52:06;6.70;49.80
66928;DHT22;59882;45.624;11.698;2023-02-28T08:54:32;6.70;50.10
66928;DHT22;59882;45.624;11.698;2023-02-28T08:56:59;6.80;50.60
66928;DHT22;59882;45.624;11.698;2023-02-28T08:59:25;6.80;50.20
66928;DHT22;59882;45.624;11.698;2023-02-28T09:01:50;6.80;50.60
66928;DHT22;59882;45.624;11.698;2023-02-28T09:04:16;6.80;50.40
66928;DHT22;59882;45.624;11.698;2023-02-28T09:06:41;6.90;50.10
66928;DHT22;59882;45.624;11.698;2023-02-28T09:09:07;6.90;50.50
66928;DHT22;59882;45.624;11.698;2023-02-28T09:11:35;6.90;49.50
66928;DHT22;59882;45.624;11.698;2023-02-28T09:14:01;7.00;49.50
66928;DHT22;59882;45.624;11.698;2023-02-28T09:16:29;7.00;49.90
66928;DHT22;59882;45.624;11.698;2023-02-28T09:18:56;7.10;50.00
66928;DHT22;59882;45.624;11.698;2023-02-28T09:21:22;7.20;50.20
66928;DHT22;59882;45.624;11.698;2023-02-28T09:23:49;7.20;50.40
66928;DHT22;59882;45.624;11.698;2023-02-28T09:26:17;7.30;49.30
66928;DHT22;59882;45.624;11.698;2023-02-28T09:28:43;7.30;48.60
66928;DHT22;59882;45.624;11.698;2023-02-28T09:31:15;7.40;48.50
66928;DHT22;59882;45.624;11.698;2023-02-28T09:33:41;7.40;48.60
66928;DHT22;59882;45.624;11.698;2023-02-28T09:36:07;7.40;48.50
66928;DHT22;59882;45.624;11.698;2023-02-28T09:38:32;7.50;48.10
66928;DHT22;59882;45.624;11.698;2023-02-28T09:41:03;7.60;48.30
66928;DHT22;59882;45.624;11.698;2023-02-28T09:43:36;7.60;48.30
66928;DHT22;59882;45.624;11.698;2023-02-28T09:49:11;7.70;48.30
66928;DHT22;59882;45.624;11.698;2023-02-28T09:54:16;7.80;48.70
66928;DHT22;59882;45.624;11.698;2023-02-28T09:57:08;7.90;47.70
66928;DHT22;59882;45.624;11.698;2023-02-28T10:05:14;8.10;47.40
66928;DHT22;59882;45.624;11.698;2023-02-28T10:08:00;8.20;47.50
66928;DHT22;59882;45.624;11.698;2023-02-28T10:15:51;8.40;47.40
66928;DHT22;59882;45.624;11.698;2023-02-28T10:18:23;8.40;46.00
66928;DHT22;59882;45.624;11.698;2023-02-28T10:20:51;8.50;47.10
66928;DHT22;59882;45.624;11.698;2023-02-28T10:23:34;8.60;46.20
66928;DHT22;59882;45.624;11.698;2023-02-28T10:28:35;8.60;46.10
66928;DHT22;59882;45.624;11.698;2023-02-28T10:31:02;8.70;47.30
66928;DHT22;59882;45.624;11.698;2023-02-28T10:33:31;8.70;46.70
66928;DHT22;59882;45.624;11.698;2023-02-28T10:35:57;8.80;46.70
66928;DHT22;59882;45.624;11.698;2023-02-28T10:38:26;8.80;46.70
66928;DHT22;59882;45.624;11.698;2023-02-28T10:41:48;8.90;46.40
66928;DHT22;59882;45.624;11.698;2023-02-28T10:43:49;9.00;46.20
66928;DHT22;59882;45.624;11.698;2023-02-28T10:46:17;9.10;45.60
66928;DHT22;59882;45.624;11.698;2023-02-28T10:49:06;9.20;45.30
66928;DHT22;59882;45.624;11.698;2023-02-28T10:51:40;9.20;46.30
66928;DHT22;59882;45.624;11.698;2023-02-28T10:54:15;9.30;45.90
66928;DHT22;59882;45.624;11.698;2023-02-28T10:56:41;9.40;44.00
66928;DHT22;59882;45.624;11.698;2023-02-28T11:01:48;9.40;45.20
66928;DHT22;59882;45.624;11.698;2023-02-28T11:07:21;9.50;44.30
66928;DHT22;59882;45.624;11.698;2023-02-28T11:09:52;9.60;45.30
66928;DHT22;59882;45.624;11.698;2023-02-28T11:12:38;9.60;45.50
66928;DHT22;59882;45.624;11.698;2023-02-28T11:17:58;9.70;45.40
66928;DHT22;59882;45.624;11.698;2023-02-28T11:20:28;9.80;45.80
66928;DHT22;59882;45.624;11.698;2023-02-28T11:22:56;9.80;44.70
66928;DHT22;59882;45.624;11.698;2023-02-28T11:25:30;9.90;45.30
66928;DHT22;59882;45.624;11.698;2023-02-28T11:27:59;10.00;43.90
66928;DHT22;59882;45.624;11.698;2023-02-28T11:30:38;10.10;44.80
66928;DHT22;59882;45.624;11.698;2023-02-28T11:35:49;10.30;44.70
66928;DHT22;59882;45.624;11.698;2023-02-28T11:38:15;10.30;45.40
66928;DHT22;59882;45.624;11.698;2023-02-28T11:48:27;10.80;42.90
66928;DHT22;59882;45.624;11.698;2023-02-28T11:51:00;10.80;43.30
66928;DHT22;59882;45.624;11.698;2023-02-28T11:53:53;10.90;43.60
66928;DHT22;59882;45.624;11.698;2023-02-28T11:56:39;10.90;43.70
66928;DHT22;59882;45.624;11.698;2023-02-28T12:01:54;11.20;42.40
66928;DHT22;59882;45.624;11.698;2023-02-28T12:07:27;11.40;40.40
66928;DHT22;59882;45.624;11.698;2023-02-28T12:10:32;11.50;42.00
66928;DHT22;59882;45.624;11.698;2023-02-28T12:13:05;11.60;41.80
66928;DHT22;59882;45.624;11.698;2023-02-28T12:16:13;11.80;42.00
66928;DHT22;59882;45.624;11.698;2023-02-28T12:19:12;11.80;41.40
66928;DHT22;59882;45.624;11.698;2023-02-28T12:27:12;12.40;40.60
66928;DHT22;59882;45.624;11.698;2023-02-28T12:29:55;12.60;40.50
66928;DHT22;59882;45.624;11.698;2023-02-28T12:32:27;12.80;39.80
66928;DHT22;59882;45.624;11.698;2023-02-28T12:35:03;13.00;39.90
66928;DHT22;59882;45.624;11.698;2023-02-28T12:37:54;13.50;41.80
66928;DHT22;59882;45.624;11.698;2023-02-28T12:40:23;15.10;37.60
66928;DHT22;59882;45.624;11.698;2023-02-28T12:42:59;17.20;35.60
66928;DHT22;59882;45.624;11.698;2023-02-28T12:48:08;21.20;28.90
66928;DHT22;59882;45.624;11.698;2023-02-28T12:50:37;22.70;27.70
66928;DHT22;59882;45.624;11.698;2023-02-28T12:53:28;23.60;25.30
66928;DHT22;59882;45.624;11.698;2023-02-28T12:55:59;24.80;22.20
66928;DHT22;59882;45.624;11.698;2023-02-28T12:58:39;25.60;24.50
66928;DHT22;59882;45.624;11.698;2023-02-28T13:09:13;28.80;18.00
66928;DHT22;59882;45.624;11.698;2023-02-28T13:11:46;28.40;18.90
66928;DHT22;59882;45.624;11.698;2023-02-28T13:14:35;28.00;19.50
66928;DHT22;59882;45.624;11.698;2023-02-28T13:17:10;28.20;19.40
66928;DHT22;59882;45.624;11.698;2023-02-28T13:19:56;28.50;19.10
66928;DHT22;59882;45.624;11.698;2023-02-28T13:24:55;28.90;18.20
66928;DHT22;59882;45.624;11.698;2023-02-28T13:27:34;29.10;18.00
66928;DHT22;59882;45.624;11.698;2023-02-28T13:30:02;29.20;17.70
66928;DHT22;59882;45.624;11.698;2023-02-28T13:33:29;29.30;18.90
66928;DHT22;59882;45.624;11.698;2023-02-28T13:38:51;29.50;18.50
66928;DHT22;59882;45.624;11.698;2023-02-28T13:44:19;29.40;18.10
66928;DHT22;59882;45.624;11.698;2023-02-28T14:05:00;27.00;19.10
66928;DHT22;59882;45.624;11.698;2023-02-28T14:07:31;27.00;19.90
66928;DHT22;59882;45.624;11.698;2023-02-28T14:10:05;27.10;20.30
66928;DHT22;59882;45.624;11.698;2023-02-28T14:15:39;27.30;20.40
66928;DHT22;59882;45.624;11.698;2023-02-28T14:18:25;27.30;19.60
66928;DHT22;59882;45.624;11.698;2023-02-28T14:34:54;26.80;19.60
66928;DHT22;59882;45.624;11.698;2023-02-28T14:37:32;26.70;20.70
66928;DHT22;59882;45.624;11.698;2023-02-28T14:39:59;26.60;19.90
66928;DHT22;59882;45.624;11.698;2023-02-28T14:42:35;26.30;20.60
66928;DHT22;59882;45.624;11.698;2023-02-28T14:45:03;25.60;20.10
66928;DHT22;59882;45.624;11.698;2023-02-28T14:47:33;24.70;21.00
66928;DHT22;59882;45.624;11.698;2023-02-28T14:50:01;23.90;21.80
66928;DHT22;59882;45.624;11.698;2023-02-28T14:52:31;23.00;22.40
66928;DHT22;59882;45.624;11.698;2023-02-28T14:55:00;22.40;23.00
66928;DHT22;59882;45.624;11.698;2023-02-28T14:57:28;21.60;23.90
66928;DHT22;59882;45.624;11.698;2023-02-28T15:02:29;20.30;24.90
66928;DHT22;59882;45.624;11.698;2023-02-28T15:05:13;19.60;25.70
66928;DHT22;59882;45.624;11.698;2023-02-28T15:07:42;19.20;26.20
66928;DHT22;59882;45.624;11.698;2023-02-28T15:15:19;17.80;29.10
66928;DHT22;59882;45.624;11.698;2023-02-28T15:17:49;17.50;28.80
66928;DHT22;59882;45.624;11.698;2023-02-28T15:20:16;17.20;29.50
66928;DHT22;59882;45.624;11.698;2023-02-28T15:22:45;16.90;29.90
66928;DHT22;59882;45.624;11.698;2023-02-28T15:25:15;16.80;30.00
66928;DHT22;59882;45.624;11.698;2023-02-28T15:27:48;16.60;30.40
66928;DHT22;59882;45.624;11.698;2023-02-28T15:30:27;16.40;30.40
66928;DHT22;59882;45.624;11.698;2023-02-28T15:33:23;16.20;31.00
66928;DHT22;59882;45.624;11.698;2023-02-28T15:35:49;16.10;30.80
66928;DHT22;59882;45.624;11.698;2023-02-28T15:38:26;15.90;31.20
66928;DHT22;59882;45.624;11.698;2023-02-28T15:40:54;15.80;31.10
66928;DHT22;59882;45.624;11.698;2023-02-28T15:45:59;15.70;31.50
66928;DHT22;59882;45.624;11.698;2023-02-28T15:51:18;15.90;32.20
66928;DHT22;59882;45.624;11.698;2023-02-28T15:53:51;16.10;32.10
66928;DHT22;59882;45.624;11.698;2023-02-28T15:59:20;16.30;31.50
66928;DHT22;59882;45.624;11.698;2023-02-28T16:01:46;16.40;31.60
66928;DHT22;59882;45.624;11.698;2023-02-28T16:04:18;16.50;31.60
66928;DHT22;59882;45.624;11.698;2023-02-28T16:06:45;16.60;31.60
66928;DHT22;59882;45.624;11.698;2023-02-28T16:09:15;16.80;31.00
66928;DHT22;59882;45.624;11.698;2023-02-28T16:11:49;16.90;31.20
66928;DHT22;59882;45.624;11.698;2023-02-28T16:14:18;16.90;31.10
66928;DHT22;59882;45.624;11.698;2023-02-28T16:16:48;17.00;30.70
66928;DHT22;59882;45.624;11.698;2023-02-28T16:19:14;17.00;30.90
66928;DHT22;59882;45.624;11.698;2023-02-28T16:21:40;17.00;31.00
66928;DHT22;59882;45.624;11.698;2023-02-28T16:24:06;16.90;30.80
66928;DHT22;59882;45.624;11.698;2023-02-28T16:26:32;16.80;31.10
66928;DHT22;59882;45.624;11.698;2023-02-28T16:29:00;16.60;31.00
66928;DHT22;59882;45.624;11.698;2023-02-28T16:31:27;16.50;31.30
66928;DHT22;59882;45.624;11.698;2023-02-28T16:33:53;16.30;31.70
66928;DHT22;59882;45.624;11.698;2023-02-28T16:36:21;16.10;31.70
66928;DHT22;59882;45.624;11.698;2023-02-28T16:38:48;15.80;32.20
66928;DHT22;59882;45.624;11.698;2023-02-28T16:41:26;15.50;32.30
66928;DHT22;59882;45.624;11.698;2023-02-28T16:43:54;15.20;33.20
66928;DHT22;59882;45.624;11.698;2023-02-28T16:46:25;14.90;33.70
66928;DHT22;59882;45.624;11.698;2023-02-28T16:48:52;14.60;34.60
66928;DHT22;59882;45.624;11.698;2023-02-28T16:51:18;14.40;36.00
66928;DHT22;59882;45.624;11.698;2023-02-28T16:53:45;14.10;37.10
66928;DHT22;59882;45.624;11.698;2023-02-28T16:56:18;13.80;36.90
66928;DHT22;59882;45.624;11.698;2023-02-28T16:58:44;13.50;38.90
66928;DHT22;59882;45.624;11.698;2023-02-28T17:01:10;13.30;39.50
66928;DHT22;59882;45.624;11.698;2023-02-28T17:03:36;13.10;38.80
66928;DHT22;59882;45.624;11.698;2023-02-28T17:06:02;12.90;39.30
66928;DHT22;59882;45.624;11.698;2023-02-28T17:08:29;12.70;41.10
66928;DHT22;59882;45.624;11.698;2023-02-28T17:10:55;12.50;41.20
66928;DHT22;59882;45.624;11.698;2023-02-28T17:13:21;12.40;41.60
66928;DHT22;59882;45.624;11.698;2023-02-28T17:15:47;12.20;42.60
66928;DHT22;59882;45.624;11.698;2023-02-28T17:18:18;12.00;43.00
66928;DHT22;59882;45.624;11.698;2023-02-28T17:20:49;11.80;42.50
66928;DHT22;59882;45.624;11.698;2023-02-28T17:23:15;11.60;43.80
66928;DHT22;59882;45.624;11.698;2023-02-28T17:25:41;11.50;42.70
66928;DHT22;59882;45.624;11.698;2023-02-28T17:28:08;11.40;43.10
66928;DHT22;59882;45.624;11.698;2023-02-28T17:30:34;11.30;43.00
66928;DHT22;59882;45.624;11.698;2023-02-28T17:33:00;11.30;42.90
66928;DHT22;59882;45.624;11.698;2023-02-28T17:35:26;11.20;43.40
66928;DHT22;59882;45.624;11.698;2023-02-28T17:37:52;11.10;45.10
66928;DHT22;59882;45.624;11.698;2023-02-28T17:40:20;10.90;43.80
66928;DHT22;59882;45.624;11.698;2023-02-28T17:42:46;10.90;44.90
66928;DHT22;59882;45.624;11.698;2023-02-28T17:45:13;10.80;44.00
66928;DHT22;59882;45.624;11.698;2023-02-28T17:47:40;10.80;44.20
66928;DHT22;59882;45.624;11.698;2023-02-28T17:50:12;10.80;44.40
66928;DHT22;59882;45.624;11.698;2023-02-28T17:52:39;10.70;44.80
66928;DHT22;59882;45.624;11.698;2023-02-28T17:55:05;10.70;45.50
66928;DHT22;59882;45.624;11.698;2023-02-28T17:57:31;10.60;44.90
66928;DHT22;59882;45.624;11.698;2023-02-28T17:59:56;10.60;46.60
66928;DHT22;59882;45.624;11.698;2023-02-28T18:02:22;10.60;45.40
66928;DHT22;59882;45.624;11.698;2023-02-28T18:04:48;10.50;45.40
66928;DHT22;59882;45.624;11.698;2023-02-28T18:07:14;10.40;45.50
66928;DHT22;59882;45.624;11.698;2023-02-28T18:09:40;10.40;45.60
66928;DHT22;59882;45.624;11.698;2023-02-28T18:12:05;10.30;46.30
66928;DHT22;59882;45.624;11.698;2023-02-28T18:14:31;10.30;46.00
66928;DHT22;59882;45.624;11.698;2023-02-28T18:16:57;10.30;46.30
66928;DHT22;59882;45.624;11.698;2023-02-28T18:19:23;10.20;46.40